sensor_id;sensor_type;location;lat;lon;timestamp;P1;durP1;ratioP1;P2;durP2;ratioP2
7833;SDS011;3962;42.696;23.354;2023-01-15T00:00:32;32.70;;;16.97;;
7833;SDS011;3962;42.696;23.354;2023-01-15T00:02:59;29.40;;;15.73;;
7833;SDS011;3962;42.696;23.354;2023-01-15T00:05:26;30.53;;;16.67;;
7833;SDS011;3962;42.696;23.354;2023-01-15T00:07:53;33.20;;;17.47;;
7833;SDS011;3962;42.696;23.354;2023-01-15T00:10:19;29.37;;;15.47;;
7833;SDS011;3962;42.696;23.354;2023-01-15T00:12:46;31.30;;;16.00;;
7833;SDS011;3962;42.696;23.354;2023-01-15T00:15:13;29.53;;;15.80;;
7833;SDS011;3962;42.696;23.354;2023-01-15T00:17:41;30.33;;;16.83;;
7833;SDS011;3962;42.696;23.354;2023-01-15T00:20:08;30.47;;;17.37;;
7833;SDS011;3962;42.696;23.354;2023-01-15T00:22:36;30.70;;;17.23;;
7833;SDS011;3962;42.696;23.354;2023-01-15T00:25:03;30.97;;;16.30;;
7833;SDS011;3962;42.696;23.354;2023-01-15T00:27:48;32.50;;;16.80;;
7833;SDS011;3962;42.696;23.354;2023-01-15T00:30:15;32.00;;;17.10;;
7833;SDS011;3962;42.696;23.354;2023-01-15T00:32:43;30.97;;;16.93;;
7833;SDS011;3962;42.696;23.354;2023-01-15T00:35:11;31.77;;;16.63;;
7833;SDS011;3962;42.696;23.354;2023-01-15T00:37:39;31.27;;;16.53;;
7833;SDS011;3962;42.696;23.354;2023-01-15T00:40:06;36.20;;;17.30;;
7833;SDS011;3962;42.696;23.354;2023-01-15T00:42:34;29.50;;;16.87;;
7833;SDS011;3962;42.696;23.354;2023-01-15T00:45:01;32.97;;;16.33;;
7833;SDS011;3962;42.696;23.354;2023-01-15T00:47:34;28.03;;;15.23;;
7833;SDS011;3962;42.696;23.354;2023-01-15T00:50:02;30.60;;;16.23;;
7833;SDS011;3962;42.696;23.354;2023-01-15T00:52:29;32.03;;;16.00;;
7833;SDS011;3962;42.696;23.354;2023-01-15T00:54:56;29.40;;;15.23;;
7833;SDS011;3962;42.696;23.354;2023-01-15T00:57:23;28.73;;;16.10;;
7833;SDS011;3962;42.696;23.354;2023-01-15T00:59:50;30.80;;;16.77;;
7833;SDS011;3962;42.696;23.354;2023-01-15T01:02:17;31.33;;;16.47;;
7833;SDS011;3962;42.696;23.354;2023-01-15T01:04:44;30.53;;;16.60;;
7833;SDS011;3962;42.696;23.354;2023-01-15T01:07:12;28.17;;;15.40;;
7833;SDS011;3962;42.696;23.354;2023-01-15T01:09:39;31.57;;;15.67;;
7833;SDS011;3962;42.696;23.354;2023-01-15T01:12:06;32.97;;;16.37;;
7833;SDS011;3962;42.696;23.354;2023-01-15T01:14:33;29.37;;;16.77;;
7833;SDS011;3962;42.696;23.354;2023-01-15T01:16:59;30.80;;;16.53;;
7833;SDS011;3962;42.696;23.354;2023-01-15T01:19:26;32.13;;;16.63;;
7833;SDS011;3962;42.696;23.354;2023-01-15T01:21:53;33.03;;;19.00;;
7833;SDS011;3962;42.696;23.354;2023-01-15T01:24:22;29.73;;;15.93;;
7833;SDS011;3962;42.696;23.354;2023-01-15T01:26:49;30.47;;;15.90;;
7833;SDS011;3962;42.696;23.354;2023-01-15T01:29:18;28.70;;;15.57;;
7833;SDS011;3962;42.696;23.354;2023-01-15T01:31:46;28.83;;;16.47;;
7833;SDS011;3962;42.696;23.354;2023-01-15T01:34:15;29.97;;;15.63;;
7833;SDS011;3962;42.696;23.354;2023-01-15T01:36:42;29.70;;;16.67;;
7833;SDS011;3962;42.696;23.354;2023-01-15T01:39:12;28.20;;;15.27;;
7833;SDS011;3962;42.696;23.354;2023-01-15T01:41:41;29.83;;;15.40;;
7833;SDS011;3962;42.696;23.354;2023-01-15T01:47:09;30.60;;;16.73;;
7833;SDS011;3962;42.696;23.354;2023-01-15T01:49:42;31.50;;;16.40;;
7833;SDS011;3962;42.696;23.354;2023-01-15T01:52:13;29.90;;;15.57;;
7833;SDS011;3962;42.696;23.354;2023-01-15T01:54:43;28.47;;;14.97;;
7833;SDS011;3962;42.696;23.354;2023-01-15T01:57:13;27.07;;;15.47;;
7833;SDS011;3962;42.696;23.354;2023-01-15T01:59:41;25.63;;;14.73;;
7833;SDS011;3962;42.696;23.354;2023-01-15T02:02:09;28.27;;;14.70;;
7833;SDS011;3962;42.696;23.354;2023-01-15T02:04:35;27.20;;;15.27;;
7833;SDS011;3962;42.696;23.354;2023-01-15T02:07:04;29.50;;;16.13;;
7833;SDS011;3962;42.696;23.354;2023-01-15T02:09:31;27.53;;;14.83;;
7833;SDS011;3962;42.696;23.354;2023-01-15T02:12:00;26.50;;;14.73;;
7833;SDS011;3962;42.696;23.354;2023-01-15T02:14:36;27.17;;;14.80;;
7833;SDS011;3962;42.696;23.354;2023-01-15T02:17:11;26.77;;;14.33;;
7833;SDS011;3962;42.696;23.354;2023-01-15T02:19:44;26.13;;;13.93;;
7833;SDS011;3962;42.696;23.354;2023-01-15T02:22:21;25.47;;;14.17;;
7833;SDS011;3962;42.696;23.354;2023-01-15T02:24:57;24.43;;;12.77;;
7833;SDS011;3962;42.696;23.354;2023-01-15T02:27:33;23.60;;;12.27;;
7833;SDS011;3962;42.696;23.354;2023-01-15T02:30:03;22.70;;;13.30;;
7833;SDS011;3962;42.696;23.354;2023-01-15T02:32:36;24.03;;;12.60;;
7833;SDS011;3962;42.696;23.354;2023-01-15T02:35:09;22.20;;;12.80;;
7833;SDS011;3962;42.696;23.354;2023-01-15T02:37:43;23.03;;;12.53;;
7833;SDS011;3962;42.696;23.354;2023-01-15T02:40:14;22.67;;;12.03;;
7833;SDS011;3962;42.696;23.354;2023-01-15T02:42:45;23.37;;;13.77;;
7833;SDS011;3962;42.696;23.354;2023-01-15T02:45:14;22.10;;;13.00;;
7833;SDS011;3962;42.696;23.354;2023-01-15T02:47:48;22.57;;;12.40;;
7833;SDS011;3962;42.696;23.354;2023-01-15T02:50:18;22.37;;;12.10;;
7833;SDS011;3962;42.696;23.354;2023-01-15T02:52:52;21.53;;;12.67;;
7833;SDS011;3962;42.696;23.354;2023-01-15T02:55:24;22.60;;;11.20;;
7833;SDS011;3962;42.696;23.354;2023-01-15T02:57:58;22.93;;;12.33;;
7833;SDS011;3962;42.696;23.354;2023-01-15T03:00:28;21.30;;;11.37;;
7833;SDS011;3962;42.696;23.354;2023-01-15T03:03:00;26.57;;;12.60;;
7833;SDS011;3962;42.696;23.354;2023-01-15T03:05:34;25.10;;;12.30;;
7833;SDS011;3962;42.696;23.354;2023-01-15T03:08:05;21.97;;;12.30;;
7833;SDS011;3962;42.696;23.354;2023-01-15T03:10:35;20.27;;;12.03;;
7833;SDS011;3962;42.696;23.354;2023-01-15T03:13:08;18.83;;;11.13;;
7833;SDS011;3962;42.696;23.354;2023-01-15T03:15:42;21.20;;;11.27;;
7833;SDS011;3962;42.696;23.354;2023-01-15T03:18:35;21.50;;;11.40;;
7833;SDS011;3962;42.696;23.354;2023-01-15T03:21:08;19.53;;;11.73;;
7833;SDS011;3962;42.696;23.354;2023-01-15T03:23:38;20.53;;;12.40;;
7833;SDS011;3962;42.696;23.354;2023-01-15T03:26:12;24.70;;;12.37;;
7833;SDS011;3962;42.696;23.354;2023-01-15T03:28:41;18.67;;;11.10;;
7833;SDS011;3962;42.696;23.354;2023-01-15T03:31:09;20.50;;;11.80;;
7833;SDS011;3962;42.696;23.354;2023-01-15T03:33:36;21.53;;;12.43;;
7833;SDS011;3962;42.696;23.354;2023-01-15T03:36:03;21.10;;;12.17;;
7833;SDS011;3962;42.696;23.354;2023-01-15T03:38:31;22.60;;;13.00;;
7833;SDS011;3962;42.696;23.354;2023-01-15T03:41:02;24.07;;;14.00;;
7833;SDS011;3962;42.696;23.354;2023-01-15T03:43:44;28.03;;;14.50;;
7833;SDS011;3962;42.696;23.354;2023-01-15T03:49:09;25.10;;;13.67;;
7833;SDS011;3962;42.696;23.354;2023-01-15T03:51:44;24.17;;;14.03;;
7833;SDS011;3962;42.696;23.354;2023-01-15T03:54:18;23.40;;;12.60;;
7833;SDS011;3962;42.696;23.354;2023-01-15T03:56:51;26.47;;;13.80;;
7833;SDS011;3962;42.696;23.354;2023-01-15T03:59:27;22.00;;;12.57;;
7833;SDS011;3962;42.696;23.354;2023-01-15T04:01:57;24.77;;;13.57;;
7833;SDS011;3962;42.696;23.354;2023-01-15T04:04:26;23.63;;;13.07;;
7833;SDS011;3962;42.696;23.354;2023-01-15T04:06:54;24.33;;;13.43;;
7833;SDS011;3962;42.696;23.354;2023-01-15T04:09:21;24.90;;;13.23;;
7833;SDS011;3962;42.696;23.354;2023-01-15T04:11:49;23.40;;;12.73;;
7833;SDS011;3962;42.696;23.354;2023-01-15T04:14:16;26.30;;;13.47;;
7833;SDS011;3962;42.696;23.354;2023-01-15T04:16:44;22.23;;;12.70;;
7833;SDS011;3962;42.696;23.354;2023-01-15T04:19:11;23.50;;;12.10;;
7833;SDS011;3962;42.696;23.354;2023-01-15T04:21:38;24.17;;;13.97;;
7833;SDS011;3962;42.696;23.354;2023-01-15T04:24:05;26.40;;;14.20;;
7833;SDS011;3962;42.696;23.354;2023-01-15T04:26:32;24.17;;;12.33;;
7833;SDS011;3962;42.696;23.354;2023-01-15T04:28:59;23.90;;;14.20;;
7833;SDS011;3962;42.696;23.354;2023-01-15T04:31:26;26.13;;;13.13;;
7833;SDS011;3962;42.696;23.354;2023-01-15T04:33:54;26.10;;;13.03;;
7833;SDS011;3962;42.696;23.354;2023-01-15T04:36:20;27.13;;;14.67;;
7833;SDS011;3962;42.696;23.354;2023-01-15T04:38:47;26.43;;;13.17;;
7833;SDS011;3962;42.696;23.354;2023-01-15T04:41:14;26.47;;;13.93;;
7833;SDS011;3962;42.696;23.354;2023-01-15T04:43:58;21.70;;;12.83;;
7833;SDS011;3962;42.696;23.354;2023-01-15T04:46:34;25.87;;;14.10;;
7833;SDS011;3962;42.696;23.354;2023-01-15T04:49:04;26.57;;;13.93;;
7833;SDS011;3962;42.696;23.354;2023-01-15T04:51:32;23.07;;;12.93;;
7833;SDS011;3962;42.696;23.354;2023-01-15T04:54:00;20.70;;;12.60;;
7833;SDS011;3962;42.696;23.354;2023-01-15T04:56:28;20.83;;;12.60;;
7833;SDS011;3962;42.696;23.354;2023-01-15T04:58:54;22.20;;;12.67;;
7833;SDS011;3962;42.696;23.354;2023-01-15T05:01:21;26.50;;;12.83;;
7833;SDS011;3962;42.696;23.354;2023-01-15T05:03:48;22.77;;;11.70;;
7833;SDS011;3962;42.696;23.354;2023-01-15T05:06:16;22.20;;;11.90;;
7833;SDS011;3962;42.696;23.354;2023-01-15T05:08:43;20.80;;;12.57;;
7833;SDS011;3962;42.696;23.354;2023-01-15T05:11:10;22.87;;;11.73;;
7833;SDS011;3962;42.696;23.354;2023-01-15T05:13:37;22.90;;;11.80;;
7833;SDS011;3962;42.696;23.354;2023-01-15T05:16:15;19.83;;;11.73;;
7833;SDS011;3962;42.696;23.354;2023-01-15T05:18:43;18.97;;;10.73;;
7833;SDS011;3962;42.696;23.354;2023-01-15T05:21:15;19.03;;;11.87;;
7833;SDS011;3962;42.696;23.354;2023-01-15T05:23:45;19.07;;;11.50;;
7833;SDS011;3962;42.696;23.354;2023-01-15T05:26:13;20.30;;;12.00;;
7833;SDS011;3962;42.696;23.354;2023-01-15T05:28:40;17.43;;;10.13;;
7833;SDS011;3962;42.696;23.354;2023-01-15T05:31:07;19.50;;;9.93;;
7833;SDS011;3962;42.696;23.354;2023-01-15T05:33:34;17.17;;;10.10;;
7833;SDS011;3962;42.696;23.354;2023-01-15T05:36:02;24.37;;;11.07;;
7833;SDS011;3962;42.696;23.354;2023-01-15T05:38:31;17.90;;;10.73;;
7833;SDS011;3962;42.696;23.354;2023-01-15T05:40:58;18.30;;;10.47;;
7833;SDS011;3962;42.696;23.354;2023-01-15T05:43:48;16.93;;;9.90;;
7833;SDS011;3962;42.696;23.354;2023-01-15T05:46:15;16.33;;;9.93;;
7833;SDS011;3962;42.696;23.354;2023-01-15T05:48:42;17.43;;;9.73;;
7833;SDS011;3962;42.696;23.354;2023-01-15T05:51:09;21.90;;;10.60;;
7833;SDS011;3962;42.696;23.354;2023-01-15T05:53:37;17.60;;;10.10;;
7833;SDS011;3962;42.696;23.354;2023-01-15T05:56:04;19.33;;;10.83;;
7833;SDS011;3962;42.696;23.354;2023-01-15T05:58:32;17.87;;;9.60;;
7833;SDS011;3962;42.696;23.354;2023-01-15T06:00:59;19.07;;;9.77;;
7833;SDS011;3962;42.696;23.354;2023-01-15T06:03:26;16.63;;;10.30;;
7833;SDS011;3962;42.696;23.354;2023-01-15T06:05:54;19.30;;;10.60;;
7833;SDS011;3962;42.696;23.354;2023-01-15T06:08:22;19.13;;;10.17;;
7833;SDS011;3962;42.696;23.354;2023-01-15T06:10:50;17.57;;;10.77;;
7833;SDS011;3962;42.696;23.354;2023-01-15T06:13:17;16.63;;;10.57;;
7833;SDS011;3962;42.696;23.354;2023-01-15T06:15:44;19.23;;;10.90;;
7833;SDS011;3962;42.696;23.354;2023-01-15T06:18:10;16.50;;;10.10;;
7833;SDS011;3962;42.696;23.354;2023-01-15T06:20:38;16.93;;;8.83;;
7833;SDS011;3962;42.696;23.354;2023-01-15T06:23:05;16.13;;;8.73;;
7833;SDS011;3962;42.696;23.354;2023-01-15T06:25:32;15.97;;;9.17;;
7833;SDS011;3962;42.696;23.354;2023-01-15T06:28:02;14.00;;;8.27;;
7833;SDS011;3962;42.696;23.354;2023-01-15T06:30:29;14.83;;;9.27;;
7833;SDS011;3962;42.696;23.354;2023-01-15T06:32:56;14.00;;;8.60;;
7833;SDS011;3962;42.696;23.354;2023-01-15T06:35:22;16.17;;;9.07;;
7833;SDS011;3962;42.696;23.354;2023-01-15T06:37:49;16.63;;;9.47;;
7833;SDS011;3962;42.696;23.354;2023-01-15T06:40:16;18.57;;;11.33;;
7833;SDS011;3962;42.696;23.354;2023-01-15T06:42:43;26.17;;;12.70;;
7833;SDS011;3962;42.696;23.354;2023-01-15T06:45:29;27.63;;;14.43;;
7833;SDS011;3962;42.696;23.354;2023-01-15T06:48:19;30.83;;;15.60;;
7833;SDS011;3962;42.696;23.354;2023-01-15T06:50:46;28.43;;;15.80;;
7833;SDS011;3962;42.696;23.354;2023-01-15T06:53:13;27.70;;;14.77;;
7833;SDS011;3962;42.696;23.354;2023-01-15T06:55:40;30.40;;;14.50;;
7833;SDS011;3962;42.696;23.354;2023-01-15T06:58:06;28.27;;;14.67;;
7833;SDS011;3962;42.696;23.354;2023-01-15T07:00:34;25.07;;;14.67;;
7833;SDS011;3962;42.696;23.354;2023-01-15T07:03:02;28.53;;;15.43;;
7833;SDS011;3962;42.696;23.354;2023-01-15T07:05:29;31.90;;;15.93;;
7833;SDS011;3962;42.696;23.354;2023-01-15T07:07:57;23.60;;;13.17;;
7833;SDS011;3962;42.696;23.354;2023-01-15T07:10:24;41.27;;;20.67;;
7833;SDS011;3962;42.696;23.354;2023-01-15T07:12:51;40.67;;;21.63;;
7833;SDS011;3962;42.696;23.354;2023-01-15T07:15:17;37.37;;;19.97;;
7833;SDS011;3962;42.696;23.354;2023-01-15T07:17:45;38.83;;;21.53;;
7833;SDS011;3962;42.696;23.354;2023-01-15T07:20:12;42.50;;;22.73;;
7833;SDS011;3962;42.696;23.354;2023-01-15T07:22:39;42.53;;;22.27;;
7833;SDS011;3962;42.696;23.354;2023-01-15T07:25:06;41.03;;;22.00;;
7833;SDS011;3962;42.696;23.354;2023-01-15T07:27:34;39.63;;;20.63;;
7833;SDS011;3962;42.696;23.354;2023-01-15T07:30:01;40.60;;;22.23;;
7833;SDS011;3962;42.696;23.354;2023-01-15T07:32:28;41.10;;;21.73;;
7833;SDS011;3962;42.696;23.354;2023-01-15T07:34:56;43.07;;;22.00;;
7833;SDS011;3962;42.696;23.354;2023-01-15T07:37:23;40.70;;;22.80;;
7833;SDS011;3962;42.696;23.354;2023-01-15T07:39:50;40.73;;;20.53;;
7833;SDS011;3962;42.696;23.354;2023-01-15T07:42:17;30.23;;;16.60;;
7833;SDS011;3962;42.696;23.354;2023-01-15T07:45:01;32.70;;;18.03;;
7833;SDS011;3962;42.696;23.354;2023-01-15T07:47:45;30.57;;;16.40;;
7833;SDS011;3962;42.696;23.354;2023-01-15T07:50:30;30.70;;;17.00;;
7833;SDS011;3962;42.696;23.354;2023-01-15T07:52:57;30.87;;;16.67;;
7833;SDS011;3962;42.696;23.354;2023-01-15T07:55:24;33.20;;;17.33;;
7833;SDS011;3962;42.696;23.354;2023-01-15T07:57:52;30.37;;;16.83;;
7833;SDS011;3962;42.696;23.354;2023-01-15T08:00:20;32.63;;;17.07;;
7833;SDS011;3962;42.696;23.354;2023-01-15T08:02:49;30.07;;;16.17;;
7833;SDS011;3962;42.696;23.354;2023-01-15T08:05:16;30.40;;;17.20;;
7833;SDS011;3962;42.696;23.354;2023-01-15T08:07:45;27.77;;;15.80;;
7833;SDS011;3962;42.696;23.354;2023-01-15T08:10:13;30.97;;;15.60;;
7833;SDS011;3962;42.696;23.354;2023-01-15T08:12:40;33.50;;;16.30;;
7833;SDS011;3962;42.696;23.354;2023-01-15T08:15:25;29.13;;;15.10;;
7833;SDS011;3962;42.696;23.354;2023-01-15T08:17:52;28.17;;;15.83;;
7833;SDS011;3962;42.696;23.354;2023-01-15T08:20:20;27.23;;;14.70;;
7833;SDS011;3962;42.696;23.354;2023-01-15T08:22:49;33.90;;;16.83;;
7833;SDS011;3962;42.696;23.354;2023-01-15T08:25:16;30.67;;;15.20;;
7833;SDS011;3962;42.696;23.354;2023-01-15T08:27:45;30.17;;;15.43;;
7833;SDS011;3962;42.696;23.354;2023-01-15T08:30:13;26.23;;;13.97;;
7833;SDS011;3962;42.696;23.354;2023-01-15T08:32:42;27.60;;;14.73;;
7833;SDS011;3962;42.696;23.354;2023-01-15T08:35:09;29.50;;;15.63;;
7833;SDS011;3962;42.696;23.354;2023-01-15T08:37:37;29.90;;;16.43;;
7833;SDS011;3962;42.696;23.354;2023-01-15T08:40:05;32.83;;;17.07;;
7833;SDS011;3962;42.696;23.354;2023-01-15T08:42:33;34.57;;;17.13;;
7833;SDS011;3962;42.696;23.354;2023-01-15T08:45:00;31.60;;;16.27;;
7833;SDS011;3962;42.696;23.354;2023-01-15T08:47:27;35.43;;;16.37;;
7833;SDS011;3962;42.696;23.354;2023-01-15T08:49:56;31.30;;;17.37;;
7833;SDS011;3962;42.696;23.354;2023-01-15T08:52:22;42.13;;;19.90;;
7833;SDS011;3962;42.696;23.354;2023-01-15T08:54:49;38.53;;;18.23;;
7833;SDS011;3962;42.696;23.354;2023-01-15T08:57:17;41.23;;;19.33;;
7833;SDS011;3962;42.696;23.354;2023-01-15T08:59:45;49.77;;;23.07;;
7833;SDS011;3962;42.696;23.354;2023-01-15T09:02:13;39.80;;;20.30;;
7833;SDS011;3962;42.696;23.354;2023-01-15T09:04:41;40.33;;;21.27;;
7833;SDS011;3962;42.696;23.354;2023-01-15T09:07:08;38.77;;;20.87;;
7833;SDS011;3962;42.696;23.354;2023-01-15T09:09:35;40.17;;;20.77;;
7833;SDS011;3962;42.696;23.354;2023-01-15T09:12:02;39.43;;;19.50;;
7833;SDS011;3962;42.696;23.354;2023-01-15T09:14:31;37.77;;;20.10;;
7833;SDS011;3962;42.696;23.354;2023-01-15T09:16:57;40.53;;;20.90;;
7833;SDS011;3962;42.696;23.354;2023-01-15T09:19:24;45.70;;;22.30;;
7833;SDS011;3962;42.696;23.354;2023-01-15T09:21:51;45.07;;;23.63;;
7833;SDS011;3962;42.696;23.354;2023-01-15T09:24:18;40.87;;;22.53;;
7833;SDS011;3962;42.696;23.354;2023-01-15T09:26:44;43.63;;;21.10;;
7833;SDS011;3962;42.696;23.354;2023-01-15T09:29:11;34.73;;;18.57;;
7833;SDS011;3962;42.696;23.354;2023-01-15T09:31:40;37.17;;;19.47;;
7833;SDS011;3962;42.696;23.354;2023-01-15T09:34:06;31.70;;;16.90;;
7833;SDS011;3962;42.696;23.354;2023-01-15T09:36:34;37.80;;;19.40;;
7833;SDS011;3962;42.696;23.354;2023-01-15T09:39:02;36.57;;;20.57;;
7833;SDS011;3962;42.696;23.354;2023-01-15T09:41:31;36.23;;;19.43;;
7833;SDS011;3962;42.696;23.354;2023-01-15T09:44:28;38.47;;;19.20;;
7833;SDS011;3962;42.696;23.354;2023-01-15T09:47:06;33.50;;;16.90;;
7833;SDS011;3962;42.696;23.354;2023-01-15T09:49:39;26.03;;;14.57;;
7833;SDS011;3962;42.696;23.354;2023-01-15T09:52:19;28.67;;;14.83;;
7833;SDS011;3962;42.696;23.354;2023-01-15T09:54:57;35.33;;;16.40;;
7833;SDS011;3962;42.696;23.354;2023-01-15T09:57:28;28.57;;;15.00;;
7833;SDS011;3962;42.696;23.354;2023-01-15T09:59:56;29.63;;;16.17;;
7833;SDS011;3962;42.696;23.354;2023-01-15T10:02:28;27.53;;;15.77;;
7833;SDS011;3962;42.696;23.354;2023-01-15T10:05:01;32.13;;;17.63;;
7833;SDS011;3962;42.696;23.354;2023-01-15T10:07:34;28.57;;;15.37;;
7833;SDS011;3962;42.696;23.354;2023-01-15T10:10:09;20.47;;;11.23;;
7833;SDS011;3962;42.696;23.354;2023-01-15T10:12:39;24.03;;;11.87;;
7833;SDS011;3962;42.696;23.354;2023-01-15T10:15:14;30.57;;;13.47;;
7833;SDS011;3962;42.696;23.354;2023-01-15T10:17:58;22.77;;;12.57;;
7833;SDS011;3962;42.696;23.354;2023-01-15T10:23:19;18.37;;;10.47;;
7833;SDS011;3962;42.696;23.354;2023-01-15T10:26:01;27.93;;;13.13;;
7833;SDS011;3962;42.696;23.354;2023-01-15T10:28:41;21.70;;;11.30;;
7833;SDS011;3962;42.696;23.354;2023-01-15T10:31:19;21.53;;;11.97;;
7833;SDS011;3962;42.696;23.354;2023-01-15T10:33:53;21.40;;;11.33;;
7833;SDS011;3962;42.696;23.354;2023-01-15T10:36:33;27.40;;;13.03;;
7833;SDS011;3962;42.696;23.354;2023-01-15T10:39:07;30.27;;;11.20;;
7833;SDS011;3962;42.696;23.354;2023-01-15T10:41:44;22.97;;;12.13;;
7833;SDS011;3962;42.696;23.354;2023-01-15T10:44:20;21.57;;;10.97;;
7833;SDS011;3962;42.696;23.354;2023-01-15T10:46:54;19.80;;;11.33;;
7833;SDS011;3962;42.696;23.354;2023-01-15T10:49:27;23.90;;;12.67;;
7833;SDS011;3962;42.696;23.354;2023-01-15T10:51:55;24.87;;;13.27;;
7833;SDS011;3962;42.696;23.354;2023-01-15T10:54:28;23.47;;;13.27;;
7833;SDS011;3962;42.696;23.354;2023-01-15T10:57:00;27.30;;;13.07;;
7833;SDS011;3962;42.696;23.354;2023-01-15T10:59:37;21.47;;;12.13;;
7833;SDS011;3962;42.696;23.354;2023-01-15T11:02:17;28.73;;;13.33;;
7833;SDS011;3962;42.696;23.354;2023-01-15T11:04:50;23.00;;;12.00;;
7833;SDS011;3962;42.696;23.354;2023-01-15T11:07:18;24.17;;;13.80;;
7833;SDS011;3962;42.696;23.354;2023-01-15T11:09:46;23.67;;;12.37;;
7833;SDS011;3962;42.696;23.354;2023-01-15T11:12:19;17.97;;;11.10;;
7833;SDS011;3962;42.696;23.354;2023-01-15T11:15:15;22.23;;;12.27;;
7833;SDS011;3962;42.696;23.354;2023-01-15T11:18:06;24.20;;;12.40;;
7833;SDS011;3962;42.696;23.354;2023-01-15T11:20:58;20.33;;;10.83;;
7833;SDS011;3962;42.696;23.354;2023-01-15T11:23:27;19.23;;;8.93;;
7833;SDS011;3962;42.696;23.354;2023-01-15T11:26:00;15.93;;;9.67;;
7833;SDS011;3962;42.696;23.354;2023-01-15T11:28:32;17.63;;;10.20;;
7833;SDS011;3962;42.696;23.354;2023-01-15T11:31:04;21.50;;;10.93;;
7833;SDS011;3962;42.696;23.354;2023-01-15T11:33:32;22.33;;;11.23;;
7833;SDS011;3962;42.696;23.354;2023-01-15T11:36:02;23.30;;;12.00;;
7833;SDS011;3962;42.696;23.354;2023-01-15T11:38:41;16.80;;;10.60;;
7833;SDS011;3962;42.696;23.354;2023-01-15T11:41:15;21.17;;;10.87;;
7833;SDS011;3962;42.696;23.354;2023-01-15T11:43:52;19.73;;;10.97;;
7833;SDS011;3962;42.696;23.354;2023-01-15T11:46:37;16.43;;;9.60;;
7833;SDS011;3962;42.696;23.354;2023-01-15T11:49:21;21.70;;;10.03;;
7833;SDS011;3962;42.696;23.354;2023-01-15T11:52:07;13.73;;;7.83;;
7833;SDS011;3962;42.696;23.354;2023-01-15T11:54:36;13.67;;;7.63;;
7833;SDS011;3962;42.696;23.354;2023-01-15T11:57:05;14.60;;;8.37;;
7833;SDS011;3962;42.696;23.354;2023-01-15T11:59:32;14.30;;;9.63;;
7833;SDS011;3962;42.696;23.354;2023-01-15T12:01:59;18.33;;;11.07;;
7833;SDS011;3962;42.696;23.354;2023-01-15T12:04:31;14.53;;;8.37;;
7833;SDS011;3962;42.696;23.354;2023-01-15T12:07:01;16.67;;;8.97;;
7833;SDS011;3962;42.696;23.354;2023-01-15T12:09:34;13.20;;;8.07;;
7833;SDS011;3962;42.696;23.354;2023-01-15T12:12:14;15.47;;;9.13;;
7833;SDS011;3962;42.696;23.354;2023-01-15T12:17:49;12.13;;;7.90;;
7833;SDS011;3962;42.696;23.354;2023-01-15T12:20:25;16.13;;;8.97;;
7833;SDS011;3962;42.696;23.354;2023-01-15T12:23:03;13.57;;;8.93;;
7833;SDS011;3962;42.696;23.354;2023-01-15T12:25:47;15.02;;;9.50;;
7833;SDS011;3962;42.696;23.354;2023-01-15T12:28:21;16.07;;;9.17;;
7833;SDS011;3962;42.696;23.354;2023-01-15T12:30:56;12.77;;;8.47;;
7833;SDS011;3962;42.696;23.354;2023-01-15T12:33:34;16.37;;;9.40;;
7833;SDS011;3962;42.696;23.354;2023-01-15T12:36:07;17.87;;;10.50;;
7833;SDS011;3962;42.696;23.354;2023-01-15T12:38:41;14.63;;;8.97;;
7833;SDS011;3962;42.696;23.354;2023-01-15T12:41:14;17.23;;;9.73;;
7833;SDS011;3962;42.696;23.354;2023-01-15T12:43:48;13.80;;;8.00;;
7833;SDS011;3962;42.696;23.354;2023-01-15T12:46:37;15.27;;;8.57;;
7833;SDS011;3962;42.696;23.354;2023-01-15T12:49:09;13.70;;;8.77;;
7833;SDS011;3962;42.696;23.354;2023-01-15T12:51:49;14.97;;;8.50;;
7833;SDS011;3962;42.696;23.354;2023-01-15T12:54:24;15.80;;;9.27;;
7833;SDS011;3962;42.696;23.354;2023-01-15T12:57:01;14.10;;;8.60;;
7833;SDS011;3962;42.696;23.354;2023-01-15T12:59:36;14.77;;;9.07;;
7833;SDS011;3962;42.696;23.354;2023-01-15T13:02:12;18.50;;;10.00;;
7833;SDS011;3962;42.696;23.354;2023-01-15T13:04:45;12.80;;;8.57;;
7833;SDS011;3962;42.696;23.354;2023-01-15T13:07:17;15.73;;;8.80;;
7833;SDS011;3962;42.696;23.354;2023-01-15T13:09:50;18.70;;;8.00;;
7833;SDS011;3962;42.696;23.354;2023-01-15T13:12:23;15.10;;;9.13;;
7833;SDS011;3962;42.696;23.354;2023-01-15T13:14:50;17.93;;;9.47;;
7833;SDS011;3962;42.696;23.354;2023-01-15T13:17:20;13.63;;;8.40;;
7833;SDS011;3962;42.696;23.354;2023-01-15T13:20:01;14.67;;;9.03;;
7833;SDS011;3962;42.696;23.354;2023-01-15T13:22:41;11.23;;;7.90;;
7833;SDS011;3962;42.696;23.354;2023-01-15T13:31:31;19.83;;;10.83;;
7833;SDS011;3962;42.696;23.354;2023-01-15T13:34:22;12.37;;;8.03;;
7833;SDS011;3962;42.696;23.354;2023-01-15T13:36:53;11.70;;;7.23;;
7833;SDS011;3962;42.696;23.354;2023-01-15T13:39:24;18.17;;;9.93;;
7833;SDS011;3962;42.696;23.354;2023-01-15T13:42:01;16.93;;;9.93;;
7833;SDS011;3962;42.696;23.354;2023-01-15T13:44:48;25.43;;;12.40;;
7833;SDS011;3962;42.696;23.354;2023-01-15T13:47:19;19.53;;;9.77;;
7833;SDS011;3962;42.696;23.354;2023-01-15T13:49:49;18.60;;;10.37;;
7833;SDS011;3962;42.696;23.354;2023-01-15T13:52:20;15.37;;;10.07;;
7833;SDS011;3962;42.696;23.354;2023-01-15T13:54:50;22.67;;;12.33;;
7833;SDS011;3962;42.696;23.354;2023-01-15T13:57:23;21.23;;;11.63;;
7833;SDS011;3962;42.696;23.354;2023-01-15T13:59:53;18.77;;;10.67;;
7833;SDS011;3962;42.696;23.354;2023-01-15T14:02:22;14.33;;;8.93;;
7833;SDS011;3962;42.696;23.354;2023-01-15T14:04:50;18.23;;;10.53;;
7833;SDS011;3962;42.696;23.354;2023-01-15T14:07:18;15.43;;;9.20;;
7833;SDS011;3962;42.696;23.354;2023-01-15T14:09:47;15.73;;;10.00;;
7833;SDS011;3962;42.696;23.354;2023-01-15T14:12:17;18.17;;;10.30;;
7833;SDS011;3962;42.696;23.354;2023-01-15T14:15:04;16.07;;;9.40;;
7833;SDS011;3962;42.696;23.354;2023-01-15T14:20:51;19.30;;;10.63;;
7833;SDS011;3962;42.696;23.354;2023-01-15T14:23:31;23.57;;;11.43;;
7833;SDS011;3962;42.696;23.354;2023-01-15T14:26:10;17.60;;;10.90;;
7833;SDS011;3962;42.696;23.354;2023-01-15T14:28:47;17.33;;;9.10;;
7833;SDS011;3962;42.696;23.354;2023-01-15T14:31:34;18.83;;;10.70;;
7833;SDS011;3962;42.696;23.354;2023-01-15T14:34:11;19.00;;;11.40;;
7833;SDS011;3962;42.696;23.354;2023-01-15T14:36:45;21.10;;;12.27;;
7833;SDS011;3962;42.696;23.354;2023-01-15T14:39:27;16.97;;;10.80;;
7833;SDS011;3962;42.696;23.354;2023-01-15T14:42:03;26.30;;;12.97;;
7833;SDS011;3962;42.696;23.354;2023-01-15T14:44:56;27.53;;;13.70;;
7833;SDS011;3962;42.696;23.354;2023-01-15T14:47:27;22.77;;;13.23;;
7833;SDS011;3962;42.696;23.354;2023-01-15T14:50:00;27.70;;;13.10;;
7833;SDS011;3962;42.696;23.354;2023-01-15T14:52:30;22.63;;;12.30;;
7833;SDS011;3962;42.696;23.354;2023-01-15T14:54:57;23.87;;;12.70;;
7833;SDS011;3962;42.696;23.354;2023-01-15T14:57:25;28.30;;;14.77;;
7833;SDS011;3962;42.696;23.354;2023-01-15T14:59:52;31.63;;;17.10;;
7833;SDS011;3962;42.696;23.354;2023-01-15T15:02:23;30.67;;;15.80;;
7833;SDS011;3962;42.696;23.354;2023-01-15T15:04:59;30.97;;;16.07;;
7833;SDS011;3962;42.696;23.354;2023-01-15T15:07:29;30.87;;;16.23;;
7833;SDS011;3962;42.696;23.354;2023-01-15T15:10:05;28.67;;;16.57;;
7833;SDS011;3962;42.696;23.354;2023-01-15T15:12:38;27.53;;;15.83;;
7833;SDS011;3962;42.696;23.354;2023-01-15T15:15:09;33.87;;;16.47;;
7833;SDS011;3962;42.696;23.354;2023-01-15T15:17:43;33.13;;;17.63;;
7833;SDS011;3962;42.696;23.354;2023-01-15T15:20:25;32.77;;;17.17;;